Maldives Meteorological Service

METAR

Station
VRMM
METAR VRMM 271800Z 07008KT 9000 FEW018 BKN270 28/23 Q1013 NOSIG=
VRMH
METAR VRMH 271800Z 08005KT 8000 FEW017TCU BKN120 28/23 Q1013=
VRMK
METAR VRMK 271800Z 03005KT 9999 FEW018 BKN270 27/23 Q1013=
VRMT
METAR VRMT 271800Z 02005KT 9000 FEW017 FEW018CB BKN120 28/25 Q1012 CB S,NW=
VRMG
METAR VRMG 271800Z 36009KT 9999 SCT018TCU BKN110 28/26 Q1012 TEMPO 5000 -SHRA=
Last Updated : 2020-01-27 23:00:04

SPECI

Station
VRMM
VRMH
VRMK
VRMT
VRMG
Last Updated : 2020-01-27 23:00:04